createdAt,value
2023-03-18T00:01:01.555Z,100482.03
2023-03-18T00:03:05.008Z,100480.25
2023-03-18T00:05:09.737Z,100475.97
2023-03-18T00:07:13.031Z,100476.81
2023-03-18T00:09:16.380Z,100467.31
2023-03-18T00:11:22.301Z,100470.72
2023-03-18T00:13:27.403Z,100459.44
2023-03-18T00:15:41.823Z,100464.69
2023-03-18T00:17:45.411Z,100466.31
2023-03-18T00:19:50.324Z,100460.25
2023-03-18T00:21:53.665Z,100466.31
2023-03-18T00:23:58.729Z,100460.25
2023-03-18T00:26:03.384Z,100468.00
2023-03-18T00:28:07.763Z,100466.22
2023-03-18T00:30:14.355Z,100476.59
2023-03-18T00:32:17.816Z,100471.19
2023-03-18T00:34:21.604Z,100474.53
2023-03-18T00:36:25.894Z,100473.38
2023-03-18T00:38:30.410Z,100469.72
2023-03-18T00:40:53.212Z,100468.66
2023-03-18T00:43:07.785Z,100470.13
2023-03-18T00:45:13.596Z,100475.16
2023-03-18T00:47:17.800Z,100462.63
2023-03-18T00:49:21.086Z,100458.97
2023-03-18T00:51:26.658Z,100464.94
2023-03-18T00:53:29.874Z,100462.22
2023-03-18T00:55:33.466Z,100464.63
2023-03-18T00:57:38.086Z,100463.56
2023-03-18T00:59:41.448Z,100475.50
2023-03-18T01:01:46.786Z,100472.66
2023-03-18T01:03:52.729Z,100475.91
2023-03-18T01:05:57.495Z,100482.69
2023-03-18T01:08:01.860Z,100480.78
2023-03-18T01:10:06.364Z,100481.53
2023-03-18T01:12:11.037Z,100481.31
2023-03-18T01:14:14.297Z,100489.91
2023-03-18T01:16:17.984Z,100487.06
2023-03-18T01:18:23.562Z,100482.56
2023-03-18T01:20:27.029Z,100474.56
2023-03-18T01:22:32.918Z,100483.16
2023-03-18T01:24:36.610Z,100481.38
2023-03-18T01:26:40.284Z,100485.69
2023-03-18T01:28:43.788Z,100478.53
2023-03-18T01:30:47.880Z,100478.53
2023-03-18T01:32:55.711Z,100479.38
2023-03-18T01:35:01.005Z,100484.63
2023-03-18T01:37:05.585Z,100487.25
2023-03-18T01:39:11.848Z,100495.13
2023-03-18T01:41:17.296Z,100478.53
2023-03-18T01:43:24.000Z,100482.84
2023-03-18T01:45:31.758Z,100482.00
2023-03-18T01:47:37.177Z,100478.31
2023-03-18T01:49:43.762Z,100478.31
2023-03-18T01:51:59.925Z,100472.09
2023-03-18T01:54:06.147Z,100474.72
2023-03-18T01:56:10.166Z,100476.50
2023-03-18T01:58:18.631Z,100480.94
2023-03-18T02:00:23.540Z,100485.47
2023-03-18T02:02:27.697Z,100483.78
2023-03-18T02:04:35.248Z,100487.34
2023-03-18T02:06:39.552Z,100487.34
2023-03-18T02:08:44.330Z,100490.09
2023-03-18T02:10:47.860Z,100489.25
2023-03-18T02:12:58.201Z,100485.69
2023-03-18T02:15:11.501Z,100485.69
2023-03-18T02:17:18.106Z,100499.75
2023-03-18T02:19:33.999Z,100504.97
2023-03-18T02:21:46.502Z,100498.06
2023-03-18T02:24:01.202Z,100506.88
2023-03-18T02:26:11.911Z,100508.66
2023-03-18T02:28:22.780Z,100502.69
2023-03-18T02:30:30.208Z,100504.47
2023-03-18T02:32:35.346Z,100505.53
2023-03-18T02:34:40.847Z,100503.84
2023-03-18T02:36:44.918Z,100498.72
2023-03-18T02:38:49.147Z,100502.50
2023-03-18T02:40:58.912Z,100506.28
2023-03-18T02:43:20.761Z,100510.09
2023-03-18T02:45:42.121Z,100506.84
2023-03-18T02:47:49.764Z,100511.47
2023-03-18T02:49:52.974Z,100509.06
2023-03-18T02:51:56.533Z,100505.69
2023-03-18T02:54:03.967Z,100508.66
2023-03-18T02:56:08.265Z,100510.53
2023-03-18T02:58:11.616Z,100508.84
2023-03-18T03:00:17.445Z,100504.56
2023-03-18T03:02:21.196Z,100506.34
2023-03-18T03:04:27.121Z,100510.88
2023-03-18T03:06:30.554Z,100517.06
2023-03-18T03:08:34.645Z,100518.94
2023-03-18T03:10:39.878Z,100512.25
2023-03-18T03:12:43.720Z,100507.22
2023-03-18T03:14:47.711Z,100512.66
2023-03-18T03:16:53.083Z,100507.63
2023-03-18T03:18:56.570Z,100495.69
2023-03-18T03:20:59.773Z,100503.72
2023-03-18T03:23:03.394Z,100508.22
2023-03-18T03:25:07.600Z,100513.72
2023-03-18T03:27:11.094Z,100505.13
2023-03-18T03:29:14.494Z,100517.47
2023-03-18T03:31:18.170Z,100511.50
2023-03-18T03:33:22.972Z,100502.19
2023-03-18T03:35:26.373Z,100508.47
2023-03-18T03:37:29.671Z,100500.91
2023-03-18T03:39:32.932Z,100494.00
2023-03-18T03:41:36.192Z,100488.78
2023-03-18T03:43:40.388Z,100480.06
2023-03-18T03:45:45.071Z,100481.84
2023-03-18T03:47:49.262Z,100487.09
2023-03-18T03:49:54.294Z,100481.84
2023-03-18T03:51:57.952Z,100491.50
2023-03-18T03:54:01.211Z,100493.25
2023-03-18T03:56:05.636Z,100489.72
2023-03-18T03:58:09.543Z,100490.66
2023-03-18T04:00:16.883Z,100497.56
2023-03-18T04:02:27.129Z,100502.78
2023-03-18T04:04:31.287Z,100499.44
2023-03-18T04:06:36.659Z,100508.25
2023-03-18T04:08:39.829Z,100508.25
2023-03-18T04:10:43.761Z,100505.75
2023-03-18T04:12:47.460Z,100515.38
2023-03-18T04:14:51.882Z,100516.31
2023-03-18T04:16:58.083Z,100510.34
2023-03-18T04:19:01.339Z,100503.44
2023-03-18T04:21:06.019Z,100511.50
2023-03-18T04:23:17.672Z,100516.84
2023-03-18T04:25:21.110Z,100519.56
2023-03-18T04:27:28.668Z,100518.81
2023-03-18T04:29:33.755Z,100523.31
2023-03-18T04:31:37.909Z,100518.19
2023-03-18T04:33:41.230Z,100513.06
2023-03-18T04:35:44.592Z,100515.75
2023-03-18T04:37:50.552Z,100514.94
2023-03-18T04:39:55.853Z,100519.53
2023-03-18T04:41:59.659Z,100514.28
2023-03-18T04:44:03.056Z,100508.22
2023-03-18T04:46:15.857Z,100507.38
2023-03-18T04:48:21.749Z,100516.16
2023-03-18T04:50:25.590Z,100514.38
2023-03-18T04:52:29.335Z,100523.22
2023-03-18T04:54:32.882Z,100530.09
2023-03-18T04:56:41.350Z,100516.16
2023-03-18T04:58:44.931Z,100527.47
2023-03-18T05:00:53.961Z,100518.69
2023-03-18T05:03:03.451Z,100530.84
2023-03-18T05:05:07.809Z,100525.59
2023-03-18T05:07:17.125Z,100539.53
2023-03-18T05:09:30.372Z,100536.06
2023-03-18T05:11:35.103Z,100542.97
2023-03-18T05:13:49.462Z,100546.53
2023-03-18T05:15:55.001Z,100536.91
2023-03-18T05:17:58.578Z,100534.19
2023-03-18T05:20:02.378Z,100542.97
2023-03-18T05:22:05.784Z,100539.41
2023-03-18T05:24:10.064Z,100535.88
2023-03-18T05:26:17.207Z,100528.75
2023-03-18T05:28:22.609Z,100533.97
2023-03-18T05:30:43.090Z,100531.38
2023-03-18T05:32:49.922Z,100527.91
2023-03-18T05:34:54.635Z,100533.97
2023-03-18T05:36:58.693Z,100538.28
2023-03-18T05:39:03.236Z,100538.28
2023-03-18T05:41:07.482Z,100536.50
2023-03-18T05:43:15.276Z,100546.97
2023-03-18T05:45:25.173Z,100542.56
2023-03-18T05:47:33.108Z,100542.69
2023-03-18T05:49:45.070Z,100546.13
2023-03-18T05:51:54.934Z,100555.75
2023-03-18T05:54:10.417Z,100550.53
2023-03-18T05:56:18.250Z,100554.91
2023-03-18T05:58:26.130Z,100558.28
2023-03-18T06:00:39.945Z,100561.84
2023-03-18T06:02:44.883Z,100562.69
2023-03-18T06:04:49.037Z,100568.75
2023-03-18T06:06:52.347Z,100569.59
2023-03-18T06:08:56.287Z,100568.75
2023-03-18T06:10:59.973Z,100568.75
2023-03-18T06:13:03.641Z,100572.09
2023-03-18T06:15:08.982Z,100575.66
2023-03-18T06:17:12.651Z,100578.19
2023-03-18T06:19:17.472Z,100578.28
2023-03-18T06:21:20.743Z,100578.19
2023-03-18T06:23:24.449Z,100574.72
2023-03-18T06:25:29.085Z,100578.19
2023-03-18T06:27:32.441Z,100573.78
2023-03-18T06:29:36.926Z,100571.91
2023-03-18T06:31:47.929Z,100579.75
2023-03-18T06:33:56.247Z,100576.09
2023-03-18T06:36:02.979Z,100578.63
2023-03-18T06:38:06.775Z,100582.81
2023-03-18T06:40:13.422Z,100580.94
2023-03-18T06:42:16.900Z,100582.47
2023-03-18T06:44:42.922Z,100588.34
2023-03-18T06:46:53.778Z,100591.59
2023-03-18T06:48:58.250Z,100589.63
2023-03-18T06:51:08.305Z,100585.03
2023-03-18T06:53:16.382Z,100587.44
2023-03-18T06:55:20.716Z,100594.25
2023-03-18T06:57:23.927Z,100604.44
2023-03-18T06:59:27.535Z,100601.56
2023-03-18T07:01:32.999Z,100610.94
2023-03-18T07:03:36.780Z,100612.41
2023-03-18T07:05:42.206Z,100617.25
2023-03-18T07:07:49.272Z,100622.28
2023-03-18T07:09:52.637Z,100616.63
2023-03-18T07:11:56.791Z,100624.97
2023-03-18T07:14:00.275Z,100634.31
2023-03-18T07:16:08.081Z,100635.78
2023-03-18T07:18:12.267Z,100634.63
2023-03-18T07:20:17.046Z,100636.94
2023-03-18T07:22:20.227Z,100639.25
2023-03-18T07:24:25.422Z,100645.94
2023-03-18T07:26:29.402Z,100642.16
2023-03-18T07:28:32.917Z,100643.53
2023-03-18T07:30:36.507Z,100645.72
2023-03-18T07:32:39.905Z,100652.34
2023-03-18T07:34:43.177Z,100655.34
2023-03-18T07:36:46.954Z,100663.72
2023-03-18T07:38:50.367Z,100656.50
2023-03-18T07:40:57.638Z,100660.56
2023-03-18T07:43:01.455Z,100667.28
2023-03-18T07:45:08.440Z,100664.56
2023-03-18T07:47:14.646Z,100663.47
2023-03-18T07:49:19.017Z,100664.31
2023-03-18T07:51:23.124Z,100664.94
2023-03-18T07:53:26.474Z,100667.44
2023-03-18T07:55:30.366Z,100675.22
2023-03-18T07:57:35.470Z,100682.13
2023-03-18T07:59:38.979Z,100682.88
2023-03-18T08:01:42.933Z,100683.59
2023-03-18T08:03:46.465Z,100686.97
2023-03-18T08:05:49.876Z,100685.06
2023-03-18T08:07:53.715Z,100677.91
2023-03-18T08:09:57.234Z,100688.22
2023-03-18T08:12:00.457Z,100688.81
2023-03-18T08:14:05.192Z,100684.41
2023-03-18T08:16:08.993Z,100685.13
2023-03-18T08:18:12.498Z,100686.91
2023-03-18T08:20:18.011Z,100693.84
2023-03-18T08:22:28.510Z,100698.25
2023-03-18T08:24:32.710Z,100700.03
2023-03-18T08:26:35.984Z,100708.84
2023-03-18T08:28:39.678Z,100710.41
2023-03-18T08:30:44.683Z,100704.22
2023-03-18T08:32:48.398Z,100713.78
2023-03-18T08:34:52.494Z,100713.56
2023-03-18T08:36:55.704Z,100718.81
2023-03-18T08:38:58.947Z,100729.31
2023-03-18T08:41:02.361Z,100730.34
2023-03-18T08:43:05.581Z,100726.16
2023-03-18T08:45:10.072Z,100723.78
2023-03-18T08:47:14.714Z,100733.56
2023-03-18T08:49:18.723Z,100740.69
2023-03-18T08:51:22.481Z,100739.00
2023-03-18T08:53:25.833Z,100749.72
2023-03-18T08:55:34.656Z,100753.50
2023-03-18T08:57:38.961Z,100752.88
2023-03-18T08:59:42.322Z,100767.97
2023-03-18T09:01:45.982Z,100754.34
2023-03-18T09:03:51.032Z,100759.94
2023-03-18T09:05:55.530Z,100768.84
2023-03-18T09:08:00.307Z,100765.50
2023-03-18T09:10:04.575Z,100768.13
2023-03-18T09:12:08.706Z,100763.72
2023-03-18T09:14:11.888Z,100761.09
2023-03-18T09:16:15.240Z,100762.75
2023-03-18T09:18:19.006Z,100764.44
2023-03-18T09:20:23.804Z,100767.91
2023-03-18T09:22:27.717Z,100775.69
2023-03-18T09:24:31.741Z,100782.69
2023-03-18T09:26:35.258Z,100773.16
2023-03-18T09:28:38.513Z,100767.16
2023-03-18T09:30:42.478Z,100774.94
2023-03-18T09:32:45.930Z,100775.78
2023-03-18T09:34:49.420Z,100775.56
2023-03-18T09:36:53.999Z,100771.88
2023-03-18T09:38:57.248Z,100790.03
2023-03-18T09:41:08.063Z,100788.97
2023-03-18T09:43:24.121Z,100790.44
2023-03-18T09:45:32.248Z,100789.09
2023-03-18T09:48:04.462Z,100794.84
2023-03-18T09:50:21.151Z,100792.50
2023-03-18T09:52:31.107Z,100788.50
2023-03-18T09:54:39.291Z,100794.81
2023-03-18T09:56:44.620Z,100802.78
2023-03-18T09:58:54.905Z,100788.78
2023-03-18T10:01:01.676Z,100793.88
2023-03-18T10:03:08.048Z,100800.44
2023-03-18T10:05:16.748Z,100805.28
2023-03-18T10:07:23.759Z,100796.25
2023-03-18T10:09:32.293Z,100805.13
2023-03-18T10:11:41.518Z,100806.34
2023-03-18T10:13:49.824Z,100806.81
2023-03-18T10:15:56.719Z,100816.16
2023-03-18T10:18:07.199Z,100813.31
2023-03-18T10:20:19.544Z,100808.66
2023-03-18T10:22:51.655Z,100808.31
2023-03-18T10:25:05.357Z,100807.84
2023-03-18T10:27:17.002Z,100807.34
2023-03-18T10:29:33.310Z,100805.94
2023-03-18T10:31:55.318Z,100802.97
2023-03-18T10:34:00.525Z,100810.66
2023-03-18T10:36:13.612Z,100802.66
2023-03-18T10:38:23.155Z,100806.72
2023-03-18T10:40:30.555Z,100803.81
2023-03-18T10:42:37.175Z,100799.41
2023-03-18T10:44:43.035Z,100799.28
2023-03-18T10:46:49.359Z,100803.59
2023-03-18T10:48:57.325Z,100808.63
2023-03-18T10:51:09.604Z,100806.47
2023-03-18T10:53:20.904Z,100819.28
2023-03-18T10:55:31.211Z,100817.97
2023-03-18T10:57:36.326Z,100824.41
2023-03-18T10:59:40.185Z,100825.84
2023-03-18T11:01:46.955Z,100822.88
2023-03-18T11:03:55.446Z,100828.75
2023-03-18T11:06:01.451Z,100832.09
2023-03-18T11:08:08.965Z,100834.50
2023-03-18T11:10:15.310Z,100844.50
2023-03-18T11:12:25.677Z,100835.91
2023-03-18T11:14:32.232Z,100844.41
2023-03-18T11:16:40.127Z,100838.53
2023-03-18T11:18:46.858Z,100839.50
2023-03-18T11:21:00.648Z,100839.50
2023-03-18T11:23:12.869Z,100841.16
2023-03-18T11:25:19.538Z,100839.50
2023-03-18T11:27:29.824Z,100836.63
2023-03-18T11:29:35.857Z,100835.41
2023-03-18T11:31:50.711Z,100840.19
2023-03-18T11:33:58.992Z,100842.31
2023-03-18T11:36:07.458Z,100841.47
2023-03-18T11:38:16.793Z,100842.78
2023-03-18T11:40:37.049Z,100838.22
2023-03-18T11:42:41.639Z,100837.69
2023-03-18T11:44:46.636Z,100840.81
2023-03-18T11:46:54.447Z,100830.63
2023-03-18T11:48:59.358Z,100836.00
2023-03-18T11:51:17.570Z,100842.06
2023-03-18T11:53:29.617Z,100834.22
2023-03-18T11:55:42.222Z,100838.72
2023-03-18T11:58:10.488Z,100840.69
2023-03-18T12:00:25.422Z,100839.25
2023-03-18T12:02:49.677Z,100842.72
2023-03-18T12:05:21.229Z,100847.34
2023-03-18T12:07:40.252Z,100842.97
2023-03-18T12:09:53.508Z,100848.34
2023-03-18T12:12:08.085Z,100846.13
2023-03-18T12:14:19.455Z,100843.91
2023-03-18T12:16:40.283Z,100847.16
2023-03-18T12:18:57.567Z,100847.28
2023-03-18T12:21:10.749Z,100839.00
2023-03-18T12:23:30.912Z,100849.09
2023-03-18T12:25:47.118Z,100852.28
2023-03-18T12:27:59.925Z,100852.00
2023-03-18T12:30:20.488Z,100855.56
2023-03-18T12:32:32.610Z,100849.63
2023-03-18T12:34:56.254Z,100842.97
2023-03-18T12:37:15.500Z,100838.00
2023-03-18T12:39:47.909Z,100849.84
2023-03-18T12:42:02.951Z,100849.72
2023-03-18T12:44:22.950Z,100845.53
2023-03-18T12:46:33.023Z,100845.81
2023-03-18T12:48:53.142Z,100850.00
2023-03-18T12:51:03.440Z,100846.38
2023-03-18T12:53:16.563Z,100837.75
2023-03-18T12:55:23.673Z,100840.91
2023-03-18T12:57:33.217Z,100849.84
2023-03-18T12:59:42.668Z,100840.22
2023-03-18T13:01:50.771Z,100843.56
2023-03-18T13:03:59.189Z,100845.81
2023-03-18T13:06:09.349Z,100847.63
2023-03-18T13:08:28.167Z,100844.13
2023-03-18T13:10:35.882Z,100851.75
2023-03-18T13:12:43.140Z,100853.81
2023-03-18T13:14:57.345Z,100853.94
2023-03-18T13:17:01.936Z,100849.59
2023-03-18T13:19:06.912Z,100857.38
2023-03-18T13:21:15.542Z,100848.03
2023-03-18T13:23:36.449Z,100856.09
2023-03-18T13:25:46.543Z,100852.31
2023-03-18T13:27:56.989Z,100847.56
2023-03-18T13:30:10.897Z,100848.09
2023-03-18T13:32:29.660Z,100851.94
2023-03-18T13:34:56.369Z,100849.81
2023-03-18T13:37:26.215Z,100849.63
2023-03-18T13:39:47.717Z,100845.16
2023-03-18T13:42:20.285Z,100851.22
2023-03-18T13:44:29.332Z,100850.06
2023-03-18T13:46:35.009Z,100854.88
2023-03-18T13:48:41.672Z,100854.31
2023-03-18T13:50:49.293Z,100853.63
2023-03-18T13:52:56.330Z,100854.16
2023-03-18T13:55:06.553Z,100861.31
2023-03-18T13:57:33.733Z,100854.31
2023-03-18T13:59:48.537Z,100858.06
2023-03-18T14:01:52.281Z,100849.91
2023-03-18T14:04:02.364Z,100844.16
2023-03-18T14:06:26.489Z,100847.78
2023-03-18T14:08:48.577Z,100847.16
2023-03-18T14:11:30.157Z,100859.16
2023-03-18T14:13:35.862Z,100855.28
2023-03-18T14:15:45.553Z,100850.81
2023-03-18T14:17:56.995Z,100850.13
2023-03-18T14:20:07.261Z,100853.88
2023-03-18T14:22:19.927Z,100853.56
2023-03-18T14:24:29.329Z,100857.72
2023-03-18T14:26:32.891Z,100850.50
2023-03-18T14:28:46.561Z,100854.38
2023-03-18T14:30:57.117Z,100857.28
2023-03-18T14:33:03.211Z,100854.06
2023-03-18T14:35:28.307Z,100851.84
2023-03-18T14:37:34.594Z,100851.53
2023-03-18T14:39:40.967Z,100850.41
2023-03-18T14:41:48.743Z,100855.41
2023-03-18T14:44:07.689Z,100852.31
2023-03-18T14:46:18.886Z,100849.47
2023-03-18T14:48:27.441Z,100847.41
2023-03-18T14:50:36.389Z,100848.59
2023-03-18T14:52:44.128Z,100845.50
2023-03-18T14:54:51.232Z,100851.88
2023-03-18T14:56:56.682Z,100850.59
2023-03-18T14:59:00.034Z,100848.50
2023-03-18T15:01:09.125Z,100854.31
2023-03-18T15:03:20.152Z,100858.88
2023-03-18T15:05:23.618Z,100858.50
2023-03-18T15:07:35.423Z,100844.34
2023-03-18T15:09:42.914Z,100854.13
2023-03-18T15:11:47.780Z,100850.03
2023-03-18T15:13:51.078Z,100857.41
2023-03-18T15:15:57.320Z,100853.72
2023-03-18T15:18:04.625Z,100861.44
2023-03-18T15:20:14.075Z,100859.41
2023-03-18T15:22:26.135Z,100863.03
2023-03-18T15:24:29.556Z,100860.28
2023-03-18T15:26:37.466Z,100864.72
2023-03-18T15:28:40.697Z,100859.84
2023-03-18T15:30:52.272Z,100869.47
2023-03-18T15:33:02.733Z,100865.00
2023-03-18T15:35:16.670Z,100871.09
2023-03-18T15:37:43.281Z,100864.97
2023-03-18T15:39:46.489Z,100867.16
2023-03-18T15:41:54.796Z,100866.84
2023-03-18T15:43:58.217Z,100864.63
2023-03-18T15:46:06.914Z,100871.56
2023-03-18T15:48:24.000Z,100861.63
2023-03-18T15:50:30.328Z,100858.03
2023-03-18T15:52:36.576Z,100857.50
2023-03-18T15:54:41.704Z,100865.59
2023-03-18T15:56:46.481Z,100860.16
2023-03-18T15:58:58.877Z,100871.16
2023-03-18T16:01:02.682Z,100874.59
2023-03-18T16:03:18.822Z,100872.09
2023-03-18T16:05:26.167Z,100875.44
2023-03-18T16:07:31.838Z,100867.75
2023-03-18T16:09:36.097Z,100874.31
2023-03-18T16:11:39.452Z,100875.56
2023-03-18T16:13:44.714Z,100873.22
2023-03-18T16:15:49.366Z,100873.34
2023-03-18T16:17:53.862Z,100868.06
2023-03-18T16:19:57.525Z,100870.69
2023-03-18T16:22:00.965Z,100874.19
2023-03-18T16:24:04.205Z,100876.69
2023-03-18T16:26:15.616Z,100873.22
2023-03-18T16:28:21.159Z,100874.19
2023-03-18T16:30:26.358Z,100882.28
2023-03-18T16:32:31.271Z,100885.66
2023-03-18T16:34:35.072Z,100896.25
2023-03-18T16:36:38.383Z,100886.25
2023-03-18T16:38:41.600Z,100890.41
2023-03-18T16:40:46.721Z,100892.03
2023-03-18T16:42:50.775Z,100890.34
2023-03-18T16:44:54.552Z,100895.44
2023-03-18T16:46:58.661Z,100895.22
2023-03-18T16:49:03.456Z,100887.69
2023-03-18T16:51:07.780Z,100891.50
2023-03-18T16:53:17.625Z,100896.28
2023-03-18T16:55:22.990Z,100899.09
2023-03-18T16:57:26.405Z,100898.50
2023-03-18T16:59:31.820Z,100894.22
2023-03-18T17:01:35.519Z,100889.97
2023-03-18T17:03:38.768Z,100899.88
2023-03-18T17:05:43.933Z,100903.41
2023-03-18T17:07:47.349Z,100902.59
2023-03-18T17:09:50.607Z,100893.78
2023-03-18T17:11:57.436Z,100901.72
2023-03-18T17:14:00.894Z,100901.69
2023-03-18T17:16:04.880Z,100912.28
2023-03-18T17:18:14.040Z,100907.97
2023-03-18T17:20:20.954Z,100907.03
2023-03-18T17:22:28.428Z,100904.41
2023-03-18T17:24:31.577Z,100907.06
2023-03-18T17:26:34.943Z,100904.41
2023-03-18T17:28:40.380Z,100905.22
2023-03-18T17:30:43.698Z,100904.38
2023-03-18T17:32:48.152Z,100910.34
2023-03-18T17:34:52.750Z,100912.84
2023-03-18T17:36:56.992Z,100912.78
2023-03-18T17:39:01.697Z,100923.13
2023-03-18T17:41:08.823Z,100923.84
2023-03-18T17:43:19.238Z,100932.41
2023-03-18T17:45:28.037Z,100926.00
2023-03-18T17:47:31.714Z,100926.50
2023-03-18T17:49:35.106Z,100928.72
2023-03-18T17:51:38.752Z,100927.47
2023-03-18T17:53:44.075Z,100929.69
2023-03-18T17:55:48.748Z,100932.69
2023-03-18T17:57:52.189Z,100924.28
2023-03-18T17:59:55.447Z,100938.72
2023-03-18T18:01:58.754Z,100939.03
2023-03-18T18:04:02.909Z,100938.50
2023-03-18T18:06:06.903Z,100943.28
2023-03-18T18:08:15.987Z,100945.38
2023-03-18T18:10:21.033Z,100936.97
2023-03-18T18:12:26.156Z,100940.75
2023-03-18T18:14:32.258Z,100943.72
2023-03-18T18:16:38.237Z,100943.09
2023-03-18T18:18:41.911Z,100946.66
2023-03-18T18:20:45.188Z,100939.72
2023-03-18T18:22:53.225Z,100951.06
2023-03-18T18:24:57.926Z,100951.19
2023-03-18T18:27:01.315Z,100941.41
2023-03-18T18:29:14.137Z,100955.47
2023-03-18T18:31:19.712Z,100955.47
2023-03-18T18:33:23.062Z,100953.81
2023-03-18T18:35:26.582Z,100960.88
2023-03-18T18:37:29.805Z,100956.47
2023-03-18T18:39:33.032Z,100957.41
2023-03-18T18:41:36.421Z,100960.88
2023-03-18T18:43:39.625Z,100961.72
2023-03-18T18:45:45.314Z,100964.34
2023-03-18T18:47:48.585Z,100960.72
2023-03-18T18:49:52.186Z,100963.34
2023-03-18T18:51:57.162Z,100960.72
2023-03-18T18:54:01.815Z,100967.66
2023-03-18T18:56:14.579Z,100969.34
2023-03-18T18:58:19.448Z,100970.28
2023-03-18T19:00:24.609Z,100964.09
2023-03-18T19:02:33.978Z,100970.19
2023-03-18T19:04:37.955Z,100969.34
2023-03-18T19:06:41.786Z,100982.47
2023-03-18T19:08:45.144Z,100980.81
2023-03-18T19:10:48.441Z,100980.09
2023-03-18T19:12:51.834Z,100969.78
2023-03-18T19:14:56.046Z,100969.16
2023-03-18T19:17:00.138Z,100968.53
2023-03-18T19:19:04.780Z,100960.13
2023-03-18T19:21:08.885Z,100961.25
2023-03-18T19:23:15.802Z,100959.88
2023-03-18T19:25:19.712Z,100960.31
2023-03-18T19:27:25.634Z,100959.69
2023-03-18T19:29:29.445Z,100960.94
2023-03-18T19:31:35.037Z,100955.03
2023-03-18T19:33:38.854Z,100953.56
2023-03-18T19:35:43.969Z,100958.31
2023-03-18T19:37:49.251Z,100961.97
2023-03-18T19:39:53.091Z,100959.66
2023-03-18T19:41:56.401Z,100952.81
2023-03-18T19:44:04.090Z,100957.44
2023-03-18T19:46:07.583Z,100955.00
2023-03-18T19:48:12.788Z,100955.22
2023-03-18T19:50:17.347Z,100955.41
2023-03-18T19:52:24.466Z,100953.03
2023-03-18T19:54:31.738Z,100951.53
2023-03-18T19:56:35.111Z,100953.50
2023-03-18T19:58:38.465Z,100954.66
2023-03-18T20:00:41.991Z,100957.47
2023-03-18T20:02:45.532Z,100963.00
2023-03-18T20:04:49.499Z,100957.97
2023-03-18T20:06:52.911Z,100958.19
2023-03-18T20:08:57.551Z,100961.00
2023-03-18T20:11:00.901Z,100961.22
2023-03-18T20:13:04.228Z,100957.84
2023-03-18T20:15:13.871Z,100964.13
2023-03-18T20:17:39.593Z,100966.84
2023-03-18T20:19:42.802Z,100979.22
2023-03-18T20:21:46.854Z,100981.09
2023-03-18T20:23:50.820Z,100985.59
2023-03-18T20:25:55.964Z,100991.75
2023-03-18T20:28:00.781Z,100995.31
2023-03-18T20:30:16.758Z,100997.19
2023-03-18T20:32:19.955Z,101002.63
2023-03-18T20:34:23.232Z,101000.13
2023-03-18T20:36:26.852Z,100999.47
2023-03-18T20:38:34.122Z,101003.03
2023-03-18T20:40:37.897Z,101006.59
2023-03-18T20:42:42.665Z,100999.69
2023-03-18T20:44:46.775Z,101003.13
2023-03-18T20:46:50.297Z,101006.59
2023-03-18T20:48:53.678Z,100998.75
2023-03-18T20:50:57.714Z,101008.28
2023-03-18T20:53:01.180Z,100998.53
2023-03-18T20:55:07.591Z,101004.53
2023-03-18T20:57:12.946Z,101000.97
2023-03-18T20:59:18.023Z,101005.16
2023-03-18T21:01:23.084Z,100998.88
2023-03-18T21:03:29.500Z,100999.63
2023-03-18T21:05:33.028Z,101000.38
2023-03-18T21:07:36.581Z,100996.63
2023-03-18T21:09:40.186Z,100997.47
2023-03-18T21:11:44.056Z,100994.66
2023-03-18T21:13:47.509Z,100994.56
2023-03-18T21:15:52.523Z,100989.13
2023-03-18T21:17:56.151Z,100992.47
2023-03-18T21:20:11.135Z,100993.94
2023-03-18T21:22:21.939Z,100986.81
2023-03-18T21:24:28.046Z,100984.94
2023-03-18T21:26:31.906Z,100981.19
2023-03-18T21:28:37.806Z,100979.31
2023-03-18T21:30:42.581Z,100984.34
2023-03-18T21:32:47.615Z,100979.84
2023-03-18T21:34:51.429Z,100983.22
2023-03-18T21:36:55.173Z,100986.69
2023-03-18T21:39:04.587Z,100983.13
2023-03-18T21:41:19.800Z,100981.44
2023-03-18T21:43:29.516Z,100980.59
2023-03-18T21:45:33.890Z,100985.84
2023-03-18T21:47:37.660Z,100979.84
2023-03-18T21:49:43.613Z,100983.41
2023-03-18T21:51:47.004Z,100981.81
2023-03-18T21:53:50.511Z,100977.63
2023-03-18T21:55:54.627Z,100972.56
2023-03-18T21:57:59.970Z,100970.13
2023-03-18T22:00:03.344Z,100963.31
2023-03-18T22:02:28.622Z,100964.56
2023-03-18T22:04:31.849Z,100966.44
2023-03-18T22:06:36.463Z,100975.44
2023-03-18T22:08:39.678Z,100968.72
2023-03-18T22:10:43.186Z,100968.06
2023-03-18T22:12:46.808Z,100970.03
2023-03-18T22:14:50.265Z,100976.41
2023-03-18T22:16:53.457Z,100962.78
2023-03-18T22:18:56.846Z,100965.59
2023-03-18T22:21:00.340Z,100971.78
2023-03-18T22:23:13.393Z,100968.59
2023-03-18T22:25:28.712Z,100970.47
2023-03-18T22:27:32.981Z,100964.59
2023-03-18T22:29:36.228Z,100967.31
2023-03-18T22:31:40.835Z,100971.69
2023-03-18T22:33:44.146Z,100963.09
2023-03-18T22:35:47.454Z,100955.22
2023-03-18T22:37:51.818Z,100948.22
2023-03-18T22:39:56.379Z,100942.13
2023-03-18T22:42:00.106Z,100947.38
2023-03-18T22:44:03.718Z,100954.28
2023-03-18T22:46:11.168Z,100962.25
2023-03-18T22:48:18.235Z,100963.94
2023-03-18T22:50:23.391Z,100964.03
2023-03-18T22:52:28.309Z,100962.25
2023-03-18T22:54:31.518Z,100957.94
2023-03-18T22:56:36.482Z,100962.25
2023-03-18T22:58:39.761Z,100969.16
2023-03-18T23:00:44.813Z,100963.94
2023-03-18T23:02:51.375Z,100966.56
2023-03-18T23:04:55.996Z,100960.38
2023-03-18T23:06:59.290Z,100965.63
2023-03-18T23:09:02.833Z,100961.22
2023-03-18T23:11:06.313Z,100959.44
2023-03-18T23:13:16.444Z,100949.91
2023-03-18T23:15:22.626Z,100953.53
2023-03-18T23:17:27.803Z,100953.78
2023-03-18T23:19:31.057Z,100960.03
2023-03-18T23:21:35.378Z,100956.84
2023-03-18T23:23:39.113Z,100956.31
2023-03-18T23:25:43.809Z,100955.75
2023-03-18T23:27:47.077Z,100953.47
2023-03-18T23:29:51.971Z,100945.06
2023-03-18T23:31:55.466Z,100947.13
2023-03-18T23:33:58.711Z,100946.66
2023-03-18T23:36:01.974Z,100951.41
2023-03-18T23:38:05.815Z,100949.19
2023-03-18T23:40:10.346Z,100941.72
2023-03-18T23:42:14.534Z,100950.69
2023-03-18T23:44:17.850Z,100947.50
2023-03-18T23:46:22.483Z,100948.59
2023-03-18T23:48:25.781Z,100954.97
2023-03-18T23:50:29.220Z,100937.78
2023-03-18T23:52:32.498Z,100940.56
2023-03-18T23:54:36.600Z,100938.88
2023-03-18T23:56:39.807Z,100937.28
2023-03-18T23:58:43.030Z,100944.41
